Ellensburg, WA

4:01 AM PST on March 04, 2015 (GMT -0800)
Ellensburg WA | Change Station
CLOSE
Current Station
Personal Weather Station
Location: Ellensburg, WA
Elevation: 1541 ft
Nearby Weather Stations

Elev 1541 ft 47.00 °N, 120.55 °W | Updated 7 minutes ago

Clear
Clear
21.5 °F
Feels Like 22 °F
N
0.0
Wind Variable Wind from NNW
Gusts 0.0 mph

Today
High -- | Low -- °F
--% Chance of Precip.
Yesterday
High -- | Low -- °F
Precip. -- in
6:36 AM 5:51 PM
Waxing Gibbous, 99% visible
Pressure 30.27 in
Visibility 10.0 miles
Clouds Clear
Windchill 22 °F
Dew Point 19 °F
Humidity 90%
Rainfall 0.00 in
Snow Depth Not available.
UV 0 out of 12
Pollen 5.40 out of 12
Air Quality Not available.
Flu Activity Not available.
METAR KELN 041153Z AUTO 00000KT 10SM CLR M04/M08 A3023 RMK AO2 SLP251 T10391078 11011 21050 51007

More Conditions Fewer Conditions

Pressure 30.27 in
Visibility 10.0 miles
Clouds Clear
Windchill 22 °F
Dew Point 19 °F
Humidity 90%
Rainfall 0.00 in
Snow Depth Not available.
UV 0 out of 12
Pollen 5.40 out of 12
Air Quality Not available.
Flu Activity Not available.
METAR KELN 041153Z AUTO 00000KT 10SM CLR M04/M08 A3023 RMK AO2 SLP251 T10391078 11011 21050 51007

More Conditions Fewer Conditions

10-Day Weather Forecast

Almanac

Astronomy

Mar. 04, 2015 Rise Set
Actual Time
Civil Twilight
Nautical Twilight
Astronomical Twilight
Moon
Length of Visible Light
Length of Day
Tomorrow will be .
, % of the Moon is Illuminated

Today's Extremes

State Highs State Lows

Community

WunderPhotos

Upload Photos

1,802,436 photos uploaded!

WunderBlogs® & News

Nearby

Air Quality

  Air Quality AQ Index Pollutant
Not available.

Snow Depth

Station Depth Elevation

Earthquake Activity

City Distance Mag. Time & Date
Minimum magnitude displayed is 2.5.

Coastal Water Temperatures

Place Temperature

Nearby Weather Stations